sensor_id;sensor_type;location;lat;lon;timestamp;P1;durP1;ratioP1;P2;durP2;ratioP2
41263;SDS011;26998;48.714;9.414;2023-11-21T00:00:57;3.78;;;2.78;;
41263;SDS011;26998;48.714;9.414;2023-11-21T00:03:23;4.32;;;2.88;;
41263;SDS011;26998;48.714;9.414;2023-11-21T00:05:50;6.63;;;3.30;;
41263;SDS011;26998;48.714;9.414;2023-11-21T00:08:16;6.78;;;2.60;;
41263;SDS011;26998;48.714;9.414;2023-11-21T00:10:43;5.43;;;2.38;;
41263;SDS011;26998;48.714;9.414;2023-11-21T00:13:10;7.10;;;2.88;;
41263;SDS011;26998;48.714;9.414;2023-11-21T00:15:37;6.13;;;3.47;;
41263;SDS011;26998;48.714;9.414;2023-11-21T00:18:03;5.95;;;3.03;;
41263;SDS011;26998;48.714;9.414;2023-11-21T00:20:29;3.90;;;3.03;;
41263;SDS011;26998;48.714;9.414;2023-11-21T00:22:56;5.32;;;3.08;;
41263;SDS011;26998;48.714;9.414;2023-11-21T00:25:23;7.93;;;2.95;;
41263;SDS011;26998;48.714;9.414;2023-11-21T00:27:49;6.85;;;4.03;;
41263;SDS011;26998;48.714;9.414;2023-11-21T00:30:16;4.10;;;2.40;;
41263;SDS011;26998;48.714;9.414;2023-11-21T00:32:42;9.32;;;3.80;;
41263;SDS011;26998;48.714;9.414;2023-11-21T00:35:09;4.50;;;3.25;;
41263;SDS011;26998;48.714;9.414;2023-11-21T00:37:36;7.38;;;3.60;;
41263;SDS011;26998;48.714;9.414;2023-11-21T00:40:03;7.88;;;3.35;;
41263;SDS011;26998;48.714;9.414;2023-11-21T00:42:30;5.97;;;2.50;;
41263;SDS011;26998;48.714;9.414;2023-11-21T00:44:57;4.38;;;2.53;;
41263;SDS011;26998;48.714;9.414;2023-11-21T00:47:23;5.18;;;3.08;;
41263;SDS011;26998;48.714;9.414;2023-11-21T00:49:50;6.15;;;3.25;;
41263;SDS011;26998;48.714;9.414;2023-11-21T00:52:16;4.85;;;3.38;;
41263;SDS011;26998;48.714;9.414;2023-11-21T00:54:43;5.85;;;3.50;;
41263;SDS011;26998;48.714;9.414;2023-11-21T00:57:10;7.25;;;3.15;;
41263;SDS011;26998;48.714;9.414;2023-11-21T00:59:37;4.30;;;2.75;;
41263;SDS011;26998;48.714;9.414;2023-11-21T01:02:03;4.60;;;3.03;;
41263;SDS011;26998;48.714;9.414;2023-11-21T01:04:30;11.40;;;2.83;;
41263;SDS011;26998;48.714;9.414;2023-11-21T01:06:57;8.70;;;3.65;;
41263;SDS011;26998;48.714;9.414;2023-11-21T01:09:23;7.68;;;3.90;;
41263;SDS011;26998;48.714;9.414;2023-11-21T01:11:50;8.65;;;3.30;;
41263;SDS011;26998;48.714;9.414;2023-11-21T01:14:17;5.18;;;2.97;;
41263;SDS011;26998;48.714;9.414;2023-11-21T01:16:43;5.40;;;3.30;;
41263;SDS011;26998;48.714;9.414;2023-11-21T01:19:10;5.50;;;3.08;;
41263;SDS011;26998;48.714;9.414;2023-11-21T01:21:36;4.13;;;2.22;;
41263;SDS011;26998;48.714;9.414;2023-11-21T01:24:04;2.47;;;2.28;;
41263;SDS011;26998;48.714;9.414;2023-11-21T01:26:31;4.30;;;2.85;;
41263;SDS011;26998;48.714;9.414;2023-11-21T01:28:57;5.93;;;2.70;;
41263;SDS011;26998;48.714;9.414;2023-11-21T01:31:24;2.13;;;1.63;;
41263;SDS011;26998;48.714;9.414;2023-11-21T01:33:51;4.03;;;1.75;;
41263;SDS011;26998;48.714;9.414;2023-11-21T01:36:17;3.40;;;1.70;;
41263;SDS011;26998;48.714;9.414;2023-11-21T01:38:44;3.95;;;1.88;;
41263;SDS011;26998;48.714;9.414;2023-11-21T01:41:10;7.07;;;1.88;;
41263;SDS011;26998;48.714;9.414;2023-11-21T01:43:37;4.40;;;2.05;;
41263;SDS011;26998;48.714;9.414;2023-11-21T01:46:03;3.95;;;1.60;;
41263;SDS011;26998;48.714;9.414;2023-11-21T01:48:30;3.88;;;1.63;;
41263;SDS011;26998;48.714;9.414;2023-11-21T01:50:57;2.90;;;1.52;;
41263;SDS011;26998;48.714;9.414;2023-11-21T01:53:26;2.22;;;1.63;;
41263;SDS011;26998;48.714;9.414;2023-11-21T01:55:54;2.05;;;1.40;;
41263;SDS011;26998;48.714;9.414;2023-11-21T01:58:24;3.58;;;1.35;;
41263;SDS011;26998;48.714;9.414;2023-11-21T02:00:50;4.20;;;1.50;;
41263;SDS011;26998;48.714;9.414;2023-11-21T02:03:16;2.67;;;1.52;;
41263;SDS011;26998;48.714;9.414;2023-11-21T02:05:43;4.45;;;1.90;;
41263;SDS011;26998;48.714;9.414;2023-11-21T02:08:10;5.88;;;1.30;;
41263;SDS011;26998;48.714;9.414;2023-11-21T02:10:36;3.92;;;1.50;;
41263;SDS011;26998;48.714;9.414;2023-11-21T02:13:03;3.20;;;1.27;;
41263;SDS011;26998;48.714;9.414;2023-11-21T02:15:29;2.33;;;1.35;;
41263;SDS011;26998;48.714;9.414;2023-11-21T02:17:56;0.82;;;0.70;;
41263;SDS011;26998;48.714;9.414;2023-11-21T02:20:22;5.45;;;1.85;;
41263;SDS011;26998;48.714;9.414;2023-11-21T02:25:16;2.85;;;1.60;;
41263;SDS011;26998;48.714;9.414;2023-11-21T02:27:43;5.90;;;1.33;;
41263;SDS011;26998;48.714;9.414;2023-11-21T02:30:10;2.45;;;1.27;;
41263;SDS011;26998;48.714;9.414;2023-11-21T02:32:37;3.35;;;1.48;;
41263;SDS011;26998;48.714;9.414;2023-11-21T02:35:14;3.17;;;1.60;;
41263;SDS011;26998;48.714;9.414;2023-11-21T02:37:44;5.88;;;1.80;;
41263;SDS011;26998;48.714;9.414;2023-11-21T02:40:10;10.88;;;1.90;;
41263;SDS011;26998;48.714;9.414;2023-11-21T02:42:40;3.63;;;1.52;;
41263;SDS011;26998;48.714;9.414;2023-11-21T02:45:07;2.00;;;1.20;;
41263;SDS011;26998;48.714;9.414;2023-11-21T02:47:34;3.47;;;1.48;;
41263;SDS011;26998;48.714;9.414;2023-11-21T02:50:00;1.60;;;1.10;;
41263;SDS011;26998;48.714;9.414;2023-11-21T02:52:27;2.72;;;1.15;;
41263;SDS011;26998;48.714;9.414;2023-11-21T02:54:53;3.85;;;1.55;;
41263;SDS011;26998;48.714;9.414;2023-11-21T02:57:19;2.95;;;1.50;;
41263;SDS011;26998;48.714;9.414;2023-11-21T02:59:46;4.68;;;1.42;;
41263;SDS011;26998;48.714;9.414;2023-11-21T03:02:13;4.20;;;1.95;;
41263;SDS011;26998;48.714;9.414;2023-11-21T03:04:39;3.15;;;1.75;;
41263;SDS011;26998;48.714;9.414;2023-11-21T03:07:06;3.10;;;1.48;;
41263;SDS011;26998;48.714;9.414;2023-11-21T03:09:33;4.55;;;1.67;;
41263;SDS011;26998;48.714;9.414;2023-11-21T03:11:59;2.17;;;1.48;;
41263;SDS011;26998;48.714;9.414;2023-11-21T03:14:26;3.45;;;1.92;;
41263;SDS011;26998;48.714;9.414;2023-11-21T03:16:53;2.42;;;1.77;;
41263;SDS011;26998;48.714;9.414;2023-11-21T03:19:20;7.57;;;2.13;;
41263;SDS011;26998;48.714;9.414;2023-11-21T03:21:46;2.92;;;1.63;;
41263;SDS011;26998;48.714;9.414;2023-11-21T03:24:12;6.40;;;2.38;;
41263;SDS011;26998;48.714;9.414;2023-11-21T03:26:39;2.97;;;2.33;;
41263;SDS011;26998;48.714;9.414;2023-11-21T03:29:06;4.85;;;2.35;;
41263;SDS011;26998;48.714;9.414;2023-11-21T03:31:32;10.13;;;2.55;;
41263;SDS011;26998;48.714;9.414;2023-11-21T03:33:58;5.30;;;2.88;;
41263;SDS011;26998;48.714;9.414;2023-11-21T03:36:25;8.30;;;2.40;;
41263;SDS011;26998;48.714;9.414;2023-11-21T03:38:52;6.40;;;2.47;;
41263;SDS011;26998;48.714;9.414;2023-11-21T03:41:18;5.35;;;2.13;;
41263;SDS011;26998;48.714;9.414;2023-11-21T03:43:45;6.07;;;2.70;;
41263;SDS011;26998;48.714;9.414;2023-11-21T03:46:11;3.90;;;2.60;;
41263;SDS011;26998;48.714;9.414;2023-11-21T03:48:39;4.45;;;3.13;;
41263;SDS011;26998;48.714;9.414;2023-11-21T03:51:06;3.75;;;2.25;;
41263;SDS011;26998;48.714;9.414;2023-11-21T03:53:32;3.42;;;2.20;;
41263;SDS011;26998;48.714;9.414;2023-11-21T03:55:59;3.47;;;2.47;;
41263;SDS011;26998;48.714;9.414;2023-11-21T03:58:29;4.25;;;2.25;;
41263;SDS011;26998;48.714;9.414;2023-11-21T04:00:56;9.50;;;2.83;;
41263;SDS011;26998;48.714;9.414;2023-11-21T04:03:22;2.83;;;1.88;;
41263;SDS011;26998;48.714;9.414;2023-11-21T04:05:49;6.13;;;2.17;;
41263;SDS011;26998;48.714;9.414;2023-11-21T04:08:15;4.10;;;2.53;;
41263;SDS011;26998;48.714;9.414;2023-11-21T04:10:42;2.83;;;2.10;;
41263;SDS011;26998;48.714;9.414;2023-11-21T04:13:08;6.60;;;1.88;;
41263;SDS011;26998;48.714;9.414;2023-11-21T04:15:35;4.85;;;1.95;;
41263;SDS011;26998;48.714;9.414;2023-11-21T04:18:01;2.55;;;1.83;;
41263;SDS011;26998;48.714;9.414;2023-11-21T04:20:28;3.78;;;1.20;;
41263;SDS011;26998;48.714;9.414;2023-11-21T04:22:55;3.53;;;1.13;;
41263;SDS011;26998;48.714;9.414;2023-11-21T04:25:21;1.20;;;1.10;;
41263;SDS011;26998;48.714;9.414;2023-11-21T04:27:48;3.22;;;1.67;;
41263;SDS011;26998;48.714;9.414;2023-11-21T04:30:15;2.47;;;1.40;;
41263;SDS011;26998;48.714;9.414;2023-11-21T04:32:42;2.17;;;1.52;;
41263;SDS011;26998;48.714;9.414;2023-11-21T04:35:08;1.02;;;0.73;;
41263;SDS011;26998;48.714;9.414;2023-11-21T04:37:35;1.00;;;0.90;;
41263;SDS011;26998;48.714;9.414;2023-11-21T04:40:02;3.55;;;1.35;;
41263;SDS011;26998;48.714;9.414;2023-11-21T04:42:29;3.58;;;1.33;;
41263;SDS011;26998;48.714;9.414;2023-11-21T04:44:56;3.80;;;0.85;;
41263;SDS011;26998;48.714;9.414;2023-11-21T04:47:22;2.30;;;0.90;;
41263;SDS011;26998;48.714;9.414;2023-11-21T04:49:49;1.67;;;1.15;;
41263;SDS011;26998;48.714;9.414;2023-11-21T04:52:15;2.33;;;1.10;;
41263;SDS011;26998;48.714;9.414;2023-11-21T04:54:42;1.60;;;0.80;;
41263;SDS011;26998;48.714;9.414;2023-11-21T04:57:08;3.30;;;1.02;;
41263;SDS011;26998;48.714;9.414;2023-11-21T04:59:35;1.40;;;0.70;;
41263;SDS011;26998;48.714;9.414;2023-11-21T05:02:01;2.83;;;1.00;;
41263;SDS011;26998;48.714;9.414;2023-11-21T05:04:28;1.48;;;1.00;;
41263;SDS011;26998;48.714;9.414;2023-11-21T05:06:55;0.65;;;0.40;;
41263;SDS011;26998;48.714;9.414;2023-11-21T05:09:21;2.65;;;1.58;;
41263;SDS011;26998;48.714;9.414;2023-11-21T05:11:48;0.70;;;0.70;;
41263;SDS011;26998;48.714;9.414;2023-11-21T05:14:15;1.08;;;0.80;;
41263;SDS011;26998;48.714;9.414;2023-11-21T05:16:41;0.40;;;0.40;;
41263;SDS011;26998;48.714;9.414;2023-11-21T05:19:08;5.28;;;0.80;;
41263;SDS011;26998;48.714;9.414;2023-11-21T05:21:34;3.70;;;0.80;;
41263;SDS011;26998;48.714;9.414;2023-11-21T05:24:01;0.57;;;0.52;;
41263;SDS011;26998;48.714;9.414;2023-11-21T05:26:28;1.60;;;0.55;;
41263;SDS011;26998;48.714;9.414;2023-11-21T05:28:55;3.25;;;0.77;;
41263;SDS011;26998;48.714;9.414;2023-11-21T05:31:21;3.45;;;0.60;;
41263;SDS011;26998;48.714;9.414;2023-11-21T05:33:48;1.95;;;0.77;;
41263;SDS011;26998;48.714;9.414;2023-11-21T05:36:14;0.88;;;0.75;;
41263;SDS011;26998;48.714;9.414;2023-11-21T05:38:41;1.55;;;1.17;;
41263;SDS011;26998;48.714;9.414;2023-11-21T05:41:08;0.63;;;0.52;;
41263;SDS011;26998;48.714;9.414;2023-11-21T05:43:34;0.75;;;0.75;;
41263;SDS011;26998;48.714;9.414;2023-11-21T05:46:01;1.25;;;0.68;;
41263;SDS011;26998;48.714;9.414;2023-11-21T05:48:27;0.75;;;0.75;;
41263;SDS011;26998;48.714;9.414;2023-11-21T05:50:54;1.13;;;0.60;;
41263;SDS011;26998;48.714;9.414;2023-11-21T05:53:20;1.33;;;0.80;;
41263;SDS011;26998;48.714;9.414;2023-11-21T05:55:47;1.05;;;0.50;;
41263;SDS011;26998;48.714;9.414;2023-11-21T05:58:13;1.70;;;0.52;;
41263;SDS011;26998;48.714;9.414;2023-11-21T06:00:40;0.57;;;0.40;;
41263;SDS011;26998;48.714;9.414;2023-11-21T06:03:06;1.55;;;0.57;;
41263;SDS011;26998;48.714;9.414;2023-11-21T06:05:33;0.38;;;0.38;;
41263;SDS011;26998;48.714;9.414;2023-11-21T06:07:59;2.08;;;0.40;;
41263;SDS011;26998;48.714;9.414;2023-11-21T06:10:26;1.73;;;0.50;;
41263;SDS011;26998;48.714;9.414;2023-11-21T06:12:53;2.05;;;0.80;;
41263;SDS011;26998;48.714;9.414;2023-11-21T06:15:20;0.40;;;0.40;;
41263;SDS011;26998;48.714;9.414;2023-11-21T06:17:46;0.63;;;0.40;;
41263;SDS011;26998;48.714;9.414;2023-11-21T06:20:13;0.40;;;0.40;;
41263;SDS011;26998;48.714;9.414;2023-11-21T06:22:41;3.17;;;0.50;;
41263;SDS011;26998;48.714;9.414;2023-11-21T06:25:09;0.45;;;0.40;;
41263;SDS011;26998;48.714;9.414;2023-11-21T06:27:38;2.05;;;0.98;;
41263;SDS011;26998;48.714;9.414;2023-11-21T06:30:06;3.10;;;1.15;;
41263;SDS011;26998;48.714;9.414;2023-11-21T06:32:33;1.45;;;0.95;;
41263;SDS011;26998;48.714;9.414;2023-11-21T06:35:00;1.55;;;1.20;;
41263;SDS011;26998;48.714;9.414;2023-11-21T06:37:28;4.13;;;1.55;;
41263;SDS011;26998;48.714;9.414;2023-11-21T06:39:55;3.42;;;1.58;;
41263;SDS011;26998;48.714;9.414;2023-11-21T06:42:22;2.42;;;1.58;;
41263;SDS011;26998;48.714;9.414;2023-11-21T06:44:49;3.38;;;0.95;;
41263;SDS011;26998;48.714;9.414;2023-11-21T06:47:16;1.27;;;0.93;;
41263;SDS011;26998;48.714;9.414;2023-11-21T06:49:43;2.38;;;1.00;;
41263;SDS011;26998;48.714;9.414;2023-11-21T06:52:10;2.42;;;1.30;;
41263;SDS011;26998;48.714;9.414;2023-11-21T06:54:36;2.55;;;1.52;;
41263;SDS011;26998;48.714;9.414;2023-11-21T06:57:03;2.67;;;1.50;;
41263;SDS011;26998;48.714;9.414;2023-11-21T06:59:30;3.22;;;1.73;;
41263;SDS011;26998;48.714;9.414;2023-11-21T07:01:56;3.47;;;1.40;;
41263;SDS011;26998;48.714;9.414;2023-11-21T07:04:23;0.85;;;0.68;;
41263;SDS011;26998;48.714;9.414;2023-11-21T07:06:50;1.65;;;0.90;;
41263;SDS011;26998;48.714;9.414;2023-11-21T07:09:17;2.25;;;0.55;;
41263;SDS011;26998;48.714;9.414;2023-11-21T07:11:43;1.05;;;0.73;;
41263;SDS011;26998;48.714;9.414;2023-11-21T07:14:11;3.22;;;0.98;;
41263;SDS011;26998;48.714;9.414;2023-11-21T07:16:38;1.00;;;0.90;;
41263;SDS011;26998;48.714;9.414;2023-11-21T07:19:06;1.60;;;1.08;;
41263;SDS011;26998;48.714;9.414;2023-11-21T07:21:34;2.30;;;0.95;;
41263;SDS011;26998;48.714;9.414;2023-11-21T07:24:01;3.35;;;1.13;;
41263;SDS011;26998;48.714;9.414;2023-11-21T07:26:30;0.82;;;0.73;;
41263;SDS011;26998;48.714;9.414;2023-11-21T07:28:56;1.80;;;0.90;;
41263;SDS011;26998;48.714;9.414;2023-11-21T07:31:23;1.48;;;1.08;;
41263;SDS011;26998;48.714;9.414;2023-11-21T07:33:50;1.17;;;0.93;;
41263;SDS011;26998;48.714;9.414;2023-11-21T07:36:18;1.15;;;0.98;;
41263;SDS011;26998;48.714;9.414;2023-11-21T07:38:46;0.50;;;0.50;;
41263;SDS011;26998;48.714;9.414;2023-11-21T07:41:13;1.25;;;0.90;;
41263;SDS011;26998;48.714;9.414;2023-11-21T07:43:55;2.55;;;0.95;;
41263;SDS011;26998;48.714;9.414;2023-11-21T07:46:22;2.50;;;1.73;;
41263;SDS011;26998;48.714;9.414;2023-11-21T07:48:49;2.58;;;1.05;;
41263;SDS011;26998;48.714;9.414;2023-11-21T07:51:16;3.60;;;1.10;;
41263;SDS011;26998;48.714;9.414;2023-11-21T07:53:42;1.30;;;0.90;;
41263;SDS011;26998;48.714;9.414;2023-11-21T07:56:09;4.60;;;2.00;;
41263;SDS011;26998;48.714;9.414;2023-11-21T07:58:36;1.73;;;1.30;;
41263;SDS011;26998;48.714;9.414;2023-11-21T08:01:03;1.70;;;1.27;;
41263;SDS011;26998;48.714;9.414;2023-11-21T08:03:30;3.22;;;1.13;;
41263;SDS011;26998;48.714;9.414;2023-11-21T08:05:57;1.55;;;1.15;;
41263;SDS011;26998;48.714;9.414;2023-11-21T08:08:25;3.05;;;1.90;;
41263;SDS011;26998;48.714;9.414;2023-11-21T08:10:52;1.27;;;0.80;;
41263;SDS011;26998;48.714;9.414;2023-11-21T08:13:18;1.27;;;0.85;;
41263;SDS011;26998;48.714;9.414;2023-11-21T08:15:45;1.52;;;0.85;;
41263;SDS011;26998;48.714;9.414;2023-11-21T08:18:12;0.75;;;0.70;;
